sensor_id;sensor_type;location;lat;lon;timestamp;P1;durP1;ratioP1;P2;durP2;ratioP2
23732;SDS011;12047;53.450;-2.286;2023-05-20T00:00:49;38.38;;;26.27;;
23732;SDS011;12047;53.450;-2.286;2023-05-20T00:05:50;43.30;;;30.13;;
23732;SDS011;12047;53.450;-2.286;2023-05-20T00:10:53;45.28;;;31.20;;
23732;SDS011;12047;53.450;-2.286;2023-05-20T00:15:56;51.58;;;32.50;;
23732;SDS011;12047;53.450;-2.286;2023-05-20T00:21:10;46.63;;;33.00;;
23732;SDS011;12047;53.450;-2.286;2023-05-20T00:26:14;49.90;;;34.55;;
23732;SDS011;12047;53.450;-2.286;2023-05-20T00:31:20;51.42;;;35.22;;
23732;SDS011;12047;53.450;-2.286;2023-05-20T00:41:43;48.10;;;31.40;;
23732;SDS011;12047;53.450;-2.286;2023-05-20T00:46:45;51.97;;;33.42;;
23732;SDS011;12047;53.450;-2.286;2023-05-20T00:51:47;46.60;;;32.70;;
23732;SDS011;12047;53.450;-2.286;2023-05-20T00:56:51;49.85;;;32.13;;
23732;SDS011;12047;53.450;-2.286;2023-05-20T01:01:52;47.97;;;32.03;;
23732;SDS011;12047;53.450;-2.286;2023-05-20T01:12:57;48.17;;;32.10;;
23732;SDS011;12047;53.450;-2.286;2023-05-20T01:18:56;51.95;;;35.75;;
23732;SDS011;12047;53.450;-2.286;2023-05-20T01:36:21;50.13;;;31.98;;
23732;SDS011;12047;53.450;-2.286;2023-05-20T01:41:39;43.63;;;28.67;;
23732;SDS011;12047;53.450;-2.286;2023-05-20T01:46:48;57.20;;;35.05;;
23732;SDS011;12047;53.450;-2.286;2023-05-20T01:51:50;70.13;;;42.63;;
23732;SDS011;12047;53.450;-2.286;2023-05-20T01:56:56;66.97;;;38.95;;
23732;SDS011;12047;53.450;-2.286;2023-05-20T02:01:57;74.47;;;42.97;;
23732;SDS011;12047;53.450;-2.286;2023-05-20T02:07:17;69.88;;;41.42;;
23732;SDS011;12047;53.450;-2.286;2023-05-20T02:12:18;73.30;;;42.10;;
23732;SDS011;12047;53.450;-2.286;2023-05-20T02:17:28;63.45;;;40.03;;
23732;SDS011;12047;53.450;-2.286;2023-05-20T02:23:04;63.85;;;41.53;;
23732;SDS011;12047;53.450;-2.286;2023-05-20T02:34:32;58.33;;;38.30;;
23732;SDS011;12047;53.450;-2.286;2023-05-20T02:45:59;71.47;;;43.33;;
23732;SDS011;12047;53.450;-2.286;2023-05-20T02:51:53;64.53;;;39.28;;
23732;SDS011;12047;53.450;-2.286;2023-05-20T02:56:59;61.17;;;37.25;;
23732;SDS011;12047;53.450;-2.286;2023-05-20T03:32:25;58.73;;;35.13;;
23732;SDS011;12047;53.450;-2.286;2023-05-20T03:37:32;64.68;;;37.70;;
23732;SDS011;12047;53.450;-2.286;2023-05-20T03:42:36;62.50;;;37.22;;
23732;SDS011;12047;53.450;-2.286;2023-05-20T03:47:39;58.38;;;36.08;;
23732;SDS011;12047;53.450;-2.286;2023-05-20T03:52:43;52.08;;;33.50;;
23732;SDS011;12047;53.450;-2.286;2023-05-20T03:57:44;59.15;;;35.55;;
23732;SDS011;12047;53.450;-2.286;2023-05-20T04:02:44;62.97;;;38.00;;
23732;SDS011;12047;53.450;-2.286;2023-05-20T04:07:44;59.90;;;37.53;;
23732;SDS011;12047;53.450;-2.286;2023-05-20T04:12:48;54.05;;;34.00;;
23732;SDS011;12047;53.450;-2.286;2023-05-20T04:17:49;60.65;;;36.45;;
23732;SDS011;12047;53.450;-2.286;2023-05-20T04:22:51;57.58;;;34.92;;
23732;SDS011;12047;53.450;-2.286;2023-05-20T04:27:53;59.05;;;35.00;;
23732;SDS011;12047;53.450;-2.286;2023-05-20T04:32:54;55.83;;;33.70;;
23732;SDS011;12047;53.450;-2.286;2023-05-20T04:38:12;54.92;;;33.70;;
23732;SDS011;12047;53.450;-2.286;2023-05-20T04:44:12;52.05;;;32.65;;
23732;SDS011;12047;53.450;-2.286;2023-05-20T04:54:51;50.95;;;30.80;;
23732;SDS011;12047;53.450;-2.286;2023-05-20T04:59:56;53.45;;;30.92;;
23732;SDS011;12047;53.450;-2.286;2023-05-20T05:04:57;45.88;;;28.33;;
23732;SDS011;12047;53.450;-2.286;2023-05-20T05:09:58;62.78;;;35.65;;
23732;SDS011;12047;53.450;-2.286;2023-05-20T05:15:02;61.10;;;37.45;;
23732;SDS011;12047;53.450;-2.286;2023-05-20T05:20:03;67.75;;;38.33;;
23732;SDS011;12047;53.450;-2.286;2023-05-20T05:25:05;60.80;;;33.97;;
23732;SDS011;12047;53.450;-2.286;2023-05-20T05:35:36;41.17;;;25.10;;
23732;SDS011;12047;53.450;-2.286;2023-05-20T05:40:37;38.42;;;20.70;;
23732;SDS011;12047;53.450;-2.286;2023-05-20T05:45:41;35.30;;;21.25;;
23732;SDS011;12047;53.450;-2.286;2023-05-20T05:50:45;36.63;;;21.42;;
23732;SDS011;12047;53.450;-2.286;2023-05-20T05:55:46;35.95;;;20.20;;
23732;SDS011;12047;53.450;-2.286;2023-05-20T06:00:49;36.67;;;21.52;;
23732;SDS011;12047;53.450;-2.286;2023-05-20T06:05:53;32.83;;;20.20;;
23732;SDS011;12047;53.450;-2.286;2023-05-20T06:10:54;34.38;;;19.83;;
23732;SDS011;12047;53.450;-2.286;2023-05-20T06:15:54;34.50;;;19.20;;
23732;SDS011;12047;53.450;-2.286;2023-05-20T06:20:56;35.35;;;19.27;;
23732;SDS011;12047;53.450;-2.286;2023-05-20T06:25:59;34.72;;;19.05;;
23732;SDS011;12047;53.450;-2.286;2023-05-20T06:31:05;31.58;;;18.05;;
23732;SDS011;12047;53.450;-2.286;2023-05-20T06:36:13;29.45;;;18.40;;
23732;SDS011;12047;53.450;-2.286;2023-05-20T06:41:14;28.58;;;16.73;;
23732;SDS011;12047;53.450;-2.286;2023-05-20T06:46:16;34.45;;;18.23;;
23732;SDS011;12047;53.450;-2.286;2023-05-20T06:51:17;30.60;;;17.55;;
23732;SDS011;12047;53.450;-2.286;2023-05-20T06:56:20;28.98;;;17.45;;
23732;SDS011;12047;53.450;-2.286;2023-05-20T07:01:21;32.53;;;18.67;;
23732;SDS011;12047;53.450;-2.286;2023-05-20T07:06:21;30.58;;;18.63;;
23732;SDS011;12047;53.450;-2.286;2023-05-20T07:11:22;29.65;;;19.10;;
23732;SDS011;12047;53.450;-2.286;2023-05-20T07:16:30;30.70;;;19.17;;
23732;SDS011;12047;53.450;-2.286;2023-05-20T07:21:33;27.52;;;17.52;;
23732;SDS011;12047;53.450;-2.286;2023-05-20T07:26:34;30.52;;;17.27;;
23732;SDS011;12047;53.450;-2.286;2023-05-20T07:31:35;31.50;;;17.58;;
23732;SDS011;12047;53.450;-2.286;2023-05-20T07:36:36;25.17;;;15.15;;
23732;SDS011;12047;53.450;-2.286;2023-05-20T07:41:37;24.05;;;14.15;;
23732;SDS011;12047;53.450;-2.286;2023-05-20T07:46:37;23.35;;;13.82;;
23732;SDS011;12047;53.450;-2.286;2023-05-20T07:51:41;19.35;;;11.60;;
23732;SDS011;12047;53.450;-2.286;2023-05-20T07:56:42;20.98;;;11.75;;
23732;SDS011;12047;53.450;-2.286;2023-05-20T08:01:42;23.15;;;10.38;;
23732;SDS011;12047;53.450;-2.286;2023-05-20T08:06:43;20.92;;;12.80;;
23732;SDS011;12047;53.450;-2.286;2023-05-20T08:11:44;20.10;;;11.68;;
23732;SDS011;12047;53.450;-2.286;2023-05-20T08:16:47;18.52;;;10.95;;
23732;SDS011;12047;53.450;-2.286;2023-05-20T08:21:57;15.45;;;9.80;;
23732;SDS011;12047;53.450;-2.286;2023-05-20T08:26:58;20.50;;;9.52;;
23732;SDS011;12047;53.450;-2.286;2023-05-20T08:31:59;20.02;;;10.15;;
23732;SDS011;12047;53.450;-2.286;2023-05-20T08:36:59;19.70;;;9.95;;
23732;SDS011;12047;53.450;-2.286;2023-05-20T08:42:00;18.88;;;9.38;;
23732;SDS011;12047;53.450;-2.286;2023-05-20T08:47:02;19.70;;;11.35;;
23732;SDS011;12047;53.450;-2.286;2023-05-20T08:52:04;20.25;;;11.10;;
23732;SDS011;12047;53.450;-2.286;2023-05-20T08:57:14;18.77;;;11.48;;
23732;SDS011;12047;53.450;-2.286;2023-05-20T09:02:19;22.27;;;12.38;;
23732;SDS011;12047;53.450;-2.286;2023-05-20T09:07:29;23.52;;;13.32;;
23732;SDS011;12047;53.450;-2.286;2023-05-20T09:12:32;18.45;;;12.13;;
23732;SDS011;12047;53.450;-2.286;2023-05-20T09:17:34;23.35;;;12.45;;
23732;SDS011;12047;53.450;-2.286;2023-05-20T09:22:46;25.35;;;13.10;;
23732;SDS011;12047;53.450;-2.286;2023-05-20T09:27:59;16.30;;;9.30;;
23732;SDS011;12047;53.450;-2.286;2023-05-20T09:33:02;12.52;;;7.85;;
23732;SDS011;12047;53.450;-2.286;2023-05-20T09:38:06;14.05;;;7.05;;
23732;SDS011;12047;53.450;-2.286;2023-05-20T09:43:09;14.02;;;7.10;;
23732;SDS011;12047;53.450;-2.286;2023-05-20T09:48:11;11.70;;;6.93;;
23732;SDS011;12047;53.450;-2.286;2023-05-20T09:53:12;10.57;;;6.70;;
23732;SDS011;12047;53.450;-2.286;2023-05-20T09:58:16;12.65;;;6.75;;
23732;SDS011;12047;53.450;-2.286;2023-05-20T10:03:22;9.50;;;6.63;;
23732;SDS011;12047;53.450;-2.286;2023-05-20T10:08:27;8.57;;;6.25;;
23732;SDS011;12047;53.450;-2.286;2023-05-20T10:13:53;12.50;;;6.63;;
23732;SDS011;12047;53.450;-2.286;2023-05-20T10:19:32;12.60;;;7.45;;
23732;SDS011;12047;53.450;-2.286;2023-05-20T10:24:34;9.98;;;6.65;;
23732;SDS011;12047;53.450;-2.286;2023-05-20T10:29:44;10.20;;;6.75;;
23732;SDS011;12047;53.450;-2.286;2023-05-20T10:40:04;9.88;;;6.30;;
23732;SDS011;12047;53.450;-2.286;2023-05-20T10:45:28;8.93;;;5.85;;
23732;SDS011;12047;53.450;-2.286;2023-05-20T10:50:35;10.93;;;6.10;;
23732;SDS011;12047;53.450;-2.286;2023-05-20T10:55:38;10.98;;;5.93;;
23732;SDS011;12047;53.450;-2.286;2023-05-20T11:00:42;10.10;;;5.72;;
23732;SDS011;12047;53.450;-2.286;2023-05-20T11:05:43;9.68;;;5.43;;
23732;SDS011;12047;53.450;-2.286;2023-05-20T11:10:47;9.68;;;4.82;;
23732;SDS011;12047;53.450;-2.286;2023-05-20T11:15:48;9.93;;;5.30;;
23732;SDS011;12047;53.450;-2.286;2023-05-20T11:20:49;7.25;;;4.78;;
23732;SDS011;12047;53.450;-2.286;2023-05-20T11:25:50;9.70;;;5.05;;
23732;SDS011;12047;53.450;-2.286;2023-05-20T11:30:52;8.00;;;4.82;;
23732;SDS011;12047;53.450;-2.286;2023-05-20T11:35:53;6.80;;;4.72;;
23732;SDS011;12047;53.450;-2.286;2023-05-20T11:40:54;9.15;;;4.93;;
23732;SDS011;12047;53.450;-2.286;2023-05-20T11:45:55;10.05;;;4.18;;
23732;SDS011;12047;53.450;-2.286;2023-05-20T11:51:00;7.85;;;4.45;;
23732;SDS011;12047;53.450;-2.286;2023-05-20T11:56:00;8.65;;;4.30;;
23732;SDS011;12047;53.450;-2.286;2023-05-20T12:01:06;7.82;;;4.50;;
23732;SDS011;12047;53.450;-2.286;2023-05-20T12:06:07;10.20;;;4.28;;
23732;SDS011;12047;53.450;-2.286;2023-05-20T12:11:17;8.10;;;3.97;;
23732;SDS011;12047;53.450;-2.286;2023-05-20T12:16:17;8.43;;;3.88;;
23732;SDS011;12047;53.450;-2.286;2023-05-20T12:21:18;8.90;;;3.63;;
23732;SDS011;12047;53.450;-2.286;2023-05-20T12:26:18;8.85;;;3.83;;
23732;SDS011;12047;53.450;-2.286;2023-05-20T12:31:25;8.30;;;3.75;;
23732;SDS011;12047;53.450;-2.286;2023-05-20T12:36:26;6.90;;;3.70;;
23732;SDS011;12047;53.450;-2.286;2023-05-20T12:41:26;7.68;;;4.10;;
23732;SDS011;12047;53.450;-2.286;2023-05-20T12:46:27;9.98;;;4.00;;
23732;SDS011;12047;53.450;-2.286;2023-05-20T12:51:27;5.70;;;3.80;;
23732;SDS011;12047;53.450;-2.286;2023-05-20T12:56:28;11.18;;;4.22;;
23732;SDS011;12047;53.450;-2.286;2023-05-20T13:01:29;6.13;;;3.70;;
23732;SDS011;12047;53.450;-2.286;2023-05-20T13:06:30;6.13;;;3.80;;
23732;SDS011;12047;53.450;-2.286;2023-05-20T13:11:30;8.02;;;4.30;;
23732;SDS011;12047;53.450;-2.286;2023-05-20T13:16:31;6.75;;;4.05;;
23732;SDS011;12047;53.450;-2.286;2023-05-20T13:21:31;9.88;;;5.20;;
23732;SDS011;12047;53.450;-2.286;2023-05-20T13:26:32;7.80;;;4.57;;
23732;SDS011;12047;53.450;-2.286;2023-05-20T13:31:32;8.82;;;5.00;;
23732;SDS011;12047;53.450;-2.286;2023-05-20T13:36:33;9.53;;;4.20;;
23732;SDS011;12047;53.450;-2.286;2023-05-20T13:41:34;6.85;;;4.15;;
23732;SDS011;12047;53.450;-2.286;2023-05-20T13:46:34;6.03;;;3.88;;
23732;SDS011;12047;53.450;-2.286;2023-05-20T13:51:35;6.93;;;4.35;;
23732;SDS011;12047;53.450;-2.286;2023-05-20T13:56:35;7.45;;;4.30;;
23732;SDS011;12047;53.450;-2.286;2023-05-20T14:01:37;5.95;;;3.83;;
23732;SDS011;12047;53.450;-2.286;2023-05-20T14:06:37;8.48;;;4.45;;
23732;SDS011;12047;53.450;-2.286;2023-05-20T14:11:38;6.55;;;4.20;;
23732;SDS011;12047;53.450;-2.286;2023-05-20T14:16:39;7.55;;;4.47;;
23732;SDS011;12047;53.450;-2.286;2023-05-20T14:21:39;6.90;;;4.15;;
23732;SDS011;12047;53.450;-2.286;2023-05-20T14:26:43;7.43;;;4.82;;
23732;SDS011;12047;53.450;-2.286;2023-05-20T14:31:44;9.48;;;5.30;;
23732;SDS011;12047;53.450;-2.286;2023-05-20T14:36:44;7.18;;;4.65;;
23732;SDS011;12047;53.450;-2.286;2023-05-20T14:41:45;10.93;;;5.32;;
23732;SDS011;12047;53.450;-2.286;2023-05-20T14:46:45;8.52;;;5.00;;
23732;SDS011;12047;53.450;-2.286;2023-05-20T14:51:46;8.60;;;4.60;;
23732;SDS011;12047;53.450;-2.286;2023-05-20T14:56:47;8.35;;;4.88;;
23732;SDS011;12047;53.450;-2.286;2023-05-20T15:01:47;6.85;;;4.95;;
23732;SDS011;12047;53.450;-2.286;2023-05-20T15:06:48;7.88;;;5.20;;
23732;SDS011;12047;53.450;-2.286;2023-05-20T15:11:49;8.00;;;5.40;;
23732;SDS011;12047;53.450;-2.286;2023-05-20T15:16:49;7.70;;;5.20;;
23732;SDS011;12047;53.450;-2.286;2023-05-20T15:21:50;9.63;;;5.30;;
23732;SDS011;12047;53.450;-2.286;2023-05-20T15:26:51;8.38;;;5.40;;
23732;SDS011;12047;53.450;-2.286;2023-05-20T15:31:53;6.47;;;4.95;;
23732;SDS011;12047;53.450;-2.286;2023-05-20T15:36:53;8.73;;;5.20;;
23732;SDS011;12047;53.450;-2.286;2023-05-20T15:41:54;8.50;;;5.03;;
23732;SDS011;12047;53.450;-2.286;2023-05-20T15:46:55;7.13;;;4.90;;
23732;SDS011;12047;53.450;-2.286;2023-05-20T15:51:55;6.45;;;5.15;;
23732;SDS011;12047;53.450;-2.286;2023-05-20T15:56:56;8.35;;;5.22;;
23732;SDS011;12047;53.450;-2.286;2023-05-20T16:01:57;8.48;;;5.10;;
23732;SDS011;12047;53.450;-2.286;2023-05-20T16:06:57;9.65;;;5.25;;
23732;SDS011;12047;53.450;-2.286;2023-05-20T16:11:58;8.23;;;5.30;;
23732;SDS011;12047;53.450;-2.286;2023-05-20T16:16:58;8.73;;;5.18;;
23732;SDS011;12047;53.450;-2.286;2023-05-20T16:21:59;8.70;;;4.88;;
23732;SDS011;12047;53.450;-2.286;2023-05-20T16:27:00;9.13;;;5.22;;
23732;SDS011;12047;53.450;-2.286;2023-05-20T16:32:00;7.75;;;5.25;;
23732;SDS011;12047;53.450;-2.286;2023-05-20T16:37:01;8.93;;;5.80;;
23732;SDS011;12047;53.450;-2.286;2023-05-20T16:42:01;9.10;;;5.20;;
23732;SDS011;12047;53.450;-2.286;2023-05-20T16:47:02;7.18;;;5.45;;
23732;SDS011;12047;53.450;-2.286;2023-05-20T16:52:02;7.40;;;4.93;;
23732;SDS011;12047;53.450;-2.286;2023-05-20T16:57:03;7.00;;;5.20;;
23732;SDS011;12047;53.450;-2.286;2023-05-20T17:02:04;6.38;;;4.55;;
23732;SDS011;12047;53.450;-2.286;2023-05-20T17:07:05;10.60;;;5.68;;
23732;SDS011;12047;53.450;-2.286;2023-05-20T17:12:08;9.68;;;6.18;;
23732;SDS011;12047;53.450;-2.286;2023-05-20T17:17:09;11.45;;;8.25;;
23732;SDS011;12047;53.450;-2.286;2023-05-20T17:22:10;9.20;;;6.65;;
23732;SDS011;12047;53.450;-2.286;2023-05-20T17:27:10;10.10;;;6.68;;
23732;SDS011;12047;53.450;-2.286;2023-05-20T17:32:11;8.35;;;5.65;;
23732;SDS011;12047;53.450;-2.286;2023-05-20T17:37:11;6.80;;;5.53;;
23732;SDS011;12047;53.450;-2.286;2023-05-20T17:42:12;12.57;;;8.48;;
23732;SDS011;12047;53.450;-2.286;2023-05-20T17:47:12;9.30;;;5.40;;
23732;SDS011;12047;53.450;-2.286;2023-05-20T17:52:13;7.70;;;5.80;;
23732;SDS011;12047;53.450;-2.286;2023-05-20T17:57:13;11.85;;;6.15;;
23732;SDS011;12047;53.450;-2.286;2023-05-20T18:02:14;15.30;;;8.52;;
23732;SDS011;12047;53.450;-2.286;2023-05-20T18:07:14;6.80;;;5.28;;
23732;SDS011;12047;53.450;-2.286;2023-05-20T18:12:16;11.27;;;7.20;;
23732;SDS011;12047;53.450;-2.286;2023-05-20T18:17:17;7.13;;;5.10;;
23732;SDS011;12047;53.450;-2.286;2023-05-20T18:22:17;8.63;;;4.13;;
23732;SDS011;12047;53.450;-2.286;2023-05-20T18:27:18;4.80;;;3.60;;
23732;SDS011;12047;53.450;-2.286;2023-05-20T18:32:18;7.00;;;3.83;;
23732;SDS011;12047;53.450;-2.286;2023-05-20T18:37:21;7.22;;;4.60;;
23732;SDS011;12047;53.450;-2.286;2023-05-20T18:42:22;6.28;;;4.13;;
23732;SDS011;12047;53.450;-2.286;2023-05-20T18:47:22;10.95;;;5.38;;
23732;SDS011;12047;53.450;-2.286;2023-05-20T18:52:23;8.98;;;4.32;;
23732;SDS011;12047;53.450;-2.286;2023-05-20T18:57:23;7.88;;;4.40;;
23732;SDS011;12047;53.450;-2.286;2023-05-20T19:02:24;7.75;;;3.92;;
23732;SDS011;12047;53.450;-2.286;2023-05-20T19:07:24;11.27;;;5.07;;
23732;SDS011;12047;53.450;-2.286;2023-05-20T19:12:25;6.63;;;3.70;;
23732;SDS011;12047;53.450;-2.286;2023-05-20T19:17:26;13.45;;;4.32;;
23732;SDS011;12047;53.450;-2.286;2023-05-20T19:22:26;7.78;;;4.15;;
23732;SDS011;12047;53.450;-2.286;2023-05-20T19:27:26;11.35;;;4.90;;
23732;SDS011;12047;53.450;-2.286;2023-05-20T19:32:27;7.82;;;4.40;;
23732;SDS011;12047;53.450;-2.286;2023-05-20T19:37:28;8.13;;;5.22;;
23732;SDS011;12047;53.450;-2.286;2023-05-20T19:42:31;10.75;;;5.10;;
23732;SDS011;12047;53.450;-2.286;2023-05-20T19:47:31;8.90;;;3.92;;
23732;SDS011;12047;53.450;-2.286;2023-05-20T19:52:31;8.60;;;3.97;;
23732;SDS011;12047;53.450;-2.286;2023-05-20T19:57:32;8.77;;;3.90;;
23732;SDS011;12047;53.450;-2.286;2023-05-20T20:02:32;10.38;;;4.15;;
23732;SDS011;12047;53.450;-2.286;2023-05-20T20:07:33;12.00;;;4.20;;
23732;SDS011;12047;53.450;-2.286;2023-05-20T20:12:33;13.43;;;6.63;;
23732;SDS011;12047;53.450;-2.286;2023-05-20T20:17:34;8.20;;;4.22;;
23732;SDS011;12047;53.450;-2.286;2023-05-20T20:22:34;9.93;;;5.28;;
23732;SDS011;12047;53.450;-2.286;2023-05-20T20:27:35;9.38;;;4.43;;
23732;SDS011;12047;53.450;-2.286;2023-05-20T20:32:35;9.82;;;4.32;;
23732;SDS011;12047;53.450;-2.286;2023-05-20T20:37:35;8.10;;;3.80;;
23732;SDS011;12047;53.450;-2.286;2023-05-20T20:42:40;6.70;;;3.65;;
23732;SDS011;12047;53.450;-2.286;2023-05-20T20:47:43;7.28;;;3.25;;
23732;SDS011;12047;53.450;-2.286;2023-05-20T20:52:44;6.28;;;2.95;;
23732;SDS011;12047;53.450;-2.286;2023-05-20T20:57:44;10.90;;;5.78;;
23732;SDS011;12047;53.450;-2.286;2023-05-20T21:02:45;15.57;;;8.52;;
23732;SDS011;12047;53.450;-2.286;2023-05-20T21:07:46;14.70;;;7.32;;
23732;SDS011;12047;53.450;-2.286;2023-05-20T21:12:49;12.30;;;6.15;;
23732;SDS011;12047;53.450;-2.286;2023-05-20T21:17:49;10.43;;;6.05;;
23732;SDS011;12047;53.450;-2.286;2023-05-20T21:22:50;6.35;;;3.30;;
23732;SDS011;12047;53.450;-2.286;2023-05-20T21:27:51;6.85;;;2.95;;
23732;SDS011;12047;53.450;-2.286;2023-05-20T21:32:51;6.40;;;2.75;;
23732;SDS011;12047;53.450;-2.286;2023-05-20T21:37:52;11.95;;;3.83;;
23732;SDS011;12047;53.450;-2.286;2023-05-20T21:42:52;5.38;;;3.28;;
23732;SDS011;12047;53.450;-2.286;2023-05-20T21:47:53;6.45;;;3.30;;
23732;SDS011;12047;53.450;-2.286;2023-05-20T21:52:53;5.85;;;3.10;;
23732;SDS011;12047;53.450;-2.286;2023-05-20T21:57:53;7.83;;;3.20;;
23732;SDS011;12047;53.450;-2.286;2023-05-20T22:02:54;7.03;;;3.63;;
23732;SDS011;12047;53.450;-2.286;2023-05-20T22:07:54;6.03;;;3.17;;
23732;SDS011;12047;53.450;-2.286;2023-05-20T22:12:55;5.68;;;3.30;;
23732;SDS011;12047;53.450;-2.286;2023-05-20T22:17:57;6.18;;;3.40;;
23732;SDS011;12047;53.450;-2.286;2023-05-20T22:22:57;8.00;;;3.75;;
23732;SDS011;12047;53.450;-2.286;2023-05-20T22:27:58;7.22;;;3.40;;
23732;SDS011;12047;53.450;-2.286;2023-05-20T22:33:00;6.75;;;3.70;;
23732;SDS011;12047;53.450;-2.286;2023-05-20T22:38:01;7.75;;;3.95;;
23732;SDS011;12047;53.450;-2.286;2023-05-20T22:43:01;8.23;;;3.67;;
23732;SDS011;12047;53.450;-2.286;2023-05-20T22:48:02;5.63;;;3.63;;
23732;SDS011;12047;53.450;-2.286;2023-05-20T22:53:02;6.10;;;3.50;;
23732;SDS011;12047;53.450;-2.286;2023-05-20T22:58:03;6.88;;;3.33;;
23732;SDS011;12047;53.450;-2.286;2023-05-20T23:03:04;9.15;;;4.10;;
23732;SDS011;12047;53.450;-2.286;2023-05-20T23:08:04;11.45;;;5.18;;
23732;SDS011;12047;53.450;-2.286;2023-05-20T23:13:05;13.75;;;5.82;;
23732;SDS011;12047;53.450;-2.286;2023-05-20T23:18:06;11.15;;;5.53;;
23732;SDS011;12047;53.450;-2.286;2023-05-20T23:23:06;9.80;;;5.65;;
23732;SDS011;12047;53.450;-2.286;2023-05-20T23:28:08;11.00;;;5.53;;
23732;SDS011;12047;53.450;-2.286;2023-05-20T23:33:09;11.13;;;5.97;;
23732;SDS011;12047;53.450;-2.286;2023-05-20T23:38:09;10.67;;;5.70;;
23732;SDS011;12047;53.450;-2.286;2023-05-20T23:43:10;9.80;;;6.00;;
23732;SDS011;12047;53.450;-2.286;2023-05-20T23:48:10;8.25;;;5.28;;
23732;SDS011;12047;53.450;-2.286;2023-05-20T23:53:12;8.20;;;5.28;;
23732;SDS011;12047;53.450;-2.286;2023-05-20T23:58:13;7.88;;;5.35;;
